createdAt,value
2023-03-31T00:00:38.476Z,9.7
2023-03-31T00:01:38.981Z,9.66
2023-03-31T00:02:40.108Z,9.7
2023-03-31T00:03:40.634Z,9.7
2023-03-31T00:04:41.056Z,9.67
2023-03-31T00:05:41.439Z,9.7
2023-03-31T00:06:42.408Z,9.67
2023-03-31T00:07:43.202Z,9.66
2023-03-31T00:08:43.342Z,9.7
2023-03-31T00:09:43.846Z,9.67
2023-03-31T00:10:45.145Z,9.73
2023-03-31T00:11:46.114Z,9.77
2023-03-31T00:12:46.553Z,9.76
2023-03-31T00:13:47.269Z,9.76
2023-03-31T00:14:48.439Z,9.74
2023-03-31T00:15:49.171Z,9.76
2023-03-31T00:16:50.093Z,9.7
2023-03-31T00:17:51.230Z,9.76
2023-03-31T00:18:51.737Z,9.76
2023-03-31T00:19:52.380Z,9.7
2023-03-31T00:20:53.262Z,9.73
2023-03-31T00:21:53.761Z,9.82
2023-03-31T00:22:54.361Z,9.8
2023-03-31T00:23:55.080Z,9.72
2023-03-31T00:24:55.780Z,9.74
2023-03-31T00:25:56.273Z,9.85
2023-03-31T00:26:56.939Z,9.84
2023-03-31T00:27:57.627Z,9.72
2023-03-31T00:28:58.163Z,9.74
2023-03-31T00:29:58.461Z,9.7
2023-03-31T00:30:59.059Z,9.72
2023-03-31T00:32:00.255Z,9.77
2023-03-31T00:33:01.122Z,9.76
2023-03-31T00:34:01.960Z,9.74
2023-03-31T00:35:02.786Z,9.8
2023-03-31T00:36:03.993Z,9.77
2023-03-31T00:37:03.735Z,9.76
2023-03-31T00:38:04.316Z,9.74
2023-03-31T00:39:04.407Z,9.76
2023-03-31T00:40:05.021Z,9.74
2023-03-31T00:41:05.730Z,9.77
2023-03-31T00:42:06.476Z,9.76
2023-03-31T00:43:06.861Z,9.69
2023-03-31T00:44:08.155Z,9.73
2023-03-31T00:45:08.231Z,9.69
2023-03-31T00:46:09.708Z,9.74
2023-03-31T00:47:09.969Z,9.77
2023-03-31T00:48:10.795Z,9.8
2023-03-31T00:49:11.528Z,9.67
2023-03-31T00:50:12.241Z,9.66
2023-03-31T00:51:12.547Z,9.7
2023-03-31T00:52:13.245Z,9.64
2023-03-31T00:53:13.752Z,9.63
2023-03-31T00:54:14.665Z,9.67
2023-03-31T00:55:15.146Z,9.63
2023-03-31T00:56:15.872Z,9.7
2023-03-31T00:57:16.778Z,9.73
2023-03-31T00:58:16.967Z,9.69
2023-03-31T00:59:17.253Z,9.62
2023-03-31T01:00:18.421Z,9.7
2023-03-31T01:01:19.008Z,9.64
2023-03-31T01:02:18.823Z,9.7
2023-03-31T01:03:19.582Z,9.63
2023-03-31T01:04:20.215Z,9.63
2023-03-31T01:05:20.713Z,9.67
2023-03-31T01:06:21.416Z,9.73
2023-03-31T01:07:21.704Z,9.73
2023-03-31T01:08:22.623Z,9.74
2023-03-31T01:09:22.967Z,9.73
2023-03-31T01:10:24.059Z,9.67
2023-03-31T01:11:24.769Z,9.64
2023-03-31T01:12:25.324Z,9.66
2023-03-31T01:13:26.149Z,9.62
2023-03-31T01:14:26.833Z,9.66
2023-03-31T01:15:26.789Z,9.72
2023-03-31T01:16:27.387Z,9.72
2023-03-31T01:17:28.550Z,9.74
2023-03-31T01:18:29.322Z,9.7
2023-03-31T01:19:29.308Z,9.69
2023-03-31T01:20:30.021Z,9.67
2023-03-31T01:21:30.811Z,9.59
2023-03-31T01:22:31.575Z,9.51
2023-03-31T01:23:32.422Z,9.54
2023-03-31T01:24:33.152Z,9.47
2023-03-31T01:25:33.866Z,9.52
2023-03-31T01:26:34.547Z,9.51
2023-03-31T01:27:35.308Z,9.51
2023-03-31T01:28:35.801Z,9.55
2023-03-31T01:29:36.491Z,9.58
2023-03-31T01:30:37.446Z,9.51
2023-03-31T01:31:38.073Z,9.52
2023-03-31T01:32:38.653Z,9.51
2023-03-31T01:33:39.283Z,9.54
2023-03-31T01:34:39.208Z,9.56
2023-03-31T01:35:40.511Z,9.55
2023-03-31T01:36:41.307Z,9.63
2023-03-31T01:37:42.111Z,9.59
2023-03-31T01:38:42.855Z,9.66
2023-03-31T01:39:43.770Z,9.62
2023-03-31T01:40:44.246Z,9.63
2023-03-31T01:41:44.719Z,9.64
2023-03-31T01:42:45.662Z,9.59
2023-03-31T01:43:46.046Z,9.66
2023-03-31T01:44:46.968Z,9.64
2023-03-31T01:45:47.731Z,9.56
2023-03-31T01:46:48.851Z,9.58
2023-03-31T01:47:48.734Z,9.67
2023-03-31T01:48:49.243Z,9.58
2023-03-31T01:49:50.062Z,9.7
2023-03-31T01:50:51.143Z,9.67
2023-03-31T01:51:52.405Z,9.59
2023-03-31T01:52:52.301Z,9.63
2023-03-31T01:53:52.960Z,9.67
2023-03-31T01:54:53.456Z,9.62
2023-03-31T01:55:54.143Z,9.66
2023-03-31T01:56:54.343Z,9.67
2023-03-31T01:57:55.195Z,9.67
2023-03-31T01:58:55.928Z,9.69
2023-03-31T01:59:56.608Z,9.73
2023-03-31T02:00:57.837Z,9.59
2023-03-31T02:01:58.658Z,9.62
2023-03-31T02:02:59.365Z,9.67
2023-03-31T02:04:00.053Z,9.67
2023-03-31T02:05:00.993Z,9.66
2023-03-31T02:06:01.744Z,9.69
2023-03-31T02:07:02.153Z,9.73
2023-03-31T02:08:02.650Z,9.72
2023-03-31T02:09:03.593Z,9.8
2023-03-31T02:10:03.317Z,9.72
2023-03-31T02:11:04.203Z,9.72
2023-03-31T02:12:04.093Z,9.76
2023-03-31T02:13:05.051Z,9.72
2023-03-31T02:14:05.085Z,9.77
2023-03-31T02:15:05.759Z,9.74
2023-03-31T02:16:06.319Z,9.72
2023-03-31T02:17:06.467Z,9.77
2023-03-31T02:18:07.275Z,9.77
2023-03-31T02:19:07.208Z,9.69
2023-03-31T02:20:08.166Z,9.72
2023-03-31T02:21:08.946Z,9.59
2023-03-31T02:22:09.466Z,9.76
2023-03-31T02:23:10.217Z,9.7
2023-03-31T02:24:10.724Z,9.74
2023-03-31T02:25:11.869Z,9.69
2023-03-31T02:26:12.974Z,9.7
2023-03-31T02:27:13.478Z,9.7
2023-03-31T02:28:14.683Z,9.73
2023-03-31T02:29:15.404Z,9.72
2023-03-31T02:30:15.962Z,9.72
2023-03-31T02:31:16.183Z,9.74
2023-03-31T02:32:16.992Z,9.74
2023-03-31T02:33:17.582Z,9.74
2023-03-31T02:34:18.611Z,9.76
2023-03-31T02:35:18.528Z,9.72
2023-03-31T02:36:19.526Z,9.76
2023-03-31T02:37:20.070Z,9.73
2023-03-31T02:38:20.564Z,9.8
2023-03-31T02:39:21.477Z,9.8
2023-03-31T02:40:22.422Z,9.85
2023-03-31T02:41:23.380Z,9.81
2023-03-31T02:42:24.115Z,9.87
2023-03-31T02:43:24.474Z,9.85
2023-03-31T02:44:24.940Z,9.82
2023-03-31T02:45:25.652Z,9.85
2023-03-31T02:46:26.130Z,9.74
2023-03-31T02:47:25.917Z,9.7
2023-03-31T02:48:26.883Z,9.77
2023-03-31T02:49:27.796Z,9.69
2023-03-31T02:50:27.892Z,9.8
2023-03-31T02:51:27.933Z,9.76
2023-03-31T02:52:28.018Z,9.73
2023-03-31T02:53:28.317Z,9.72
2023-03-31T02:54:29.599Z,9.74
2023-03-31T02:55:29.889Z,9.76
2023-03-31T02:56:30.900Z,9.7
2023-03-31T02:57:31.627Z,9.76
2023-03-31T02:58:31.375Z,9.64
2023-03-31T02:59:32.281Z,9.73
2023-03-31T03:00:33.026Z,9.81
2023-03-31T03:01:33.849Z,9.74
2023-03-31T03:02:35.514Z,9.73
2023-03-31T03:03:35.574Z,9.81
2023-03-31T03:04:35.786Z,9.72
2023-03-31T03:05:36.377Z,9.69
2023-03-31T03:06:36.886Z,9.76
2023-03-31T03:07:37.580Z,9.7
2023-03-31T03:08:38.081Z,9.73
2023-03-31T03:09:38.784Z,9.73
2023-03-31T03:10:38.478Z,9.63
2023-03-31T03:11:39.574Z,9.67
2023-03-31T03:12:39.864Z,9.69
2023-03-31T03:13:40.377Z,9.55
2023-03-31T03:14:40.786Z,9.64
2023-03-31T03:15:41.060Z,9.63
2023-03-31T03:16:41.786Z,9.55
2023-03-31T03:17:42.742Z,9.55
2023-03-31T03:18:43.242Z,9.55
2023-03-31T03:19:43.119Z,9.55
2023-03-31T03:20:43.852Z,9.52
2023-03-31T03:21:45.015Z,9.52
2023-03-31T03:22:45.791Z,9.49
2023-03-31T03:23:46.890Z,9.51
2023-03-31T03:24:47.715Z,9.52
2023-03-31T03:25:47.624Z,9.55
2023-03-31T03:26:48.156Z,9.52
2023-03-31T03:27:48.740Z,9.52
2023-03-31T03:28:48.746Z,9.56
2023-03-31T03:29:49.251Z,9.49
2023-03-31T03:30:49.807Z,9.48
2023-03-31T03:31:51.089Z,9.47
2023-03-31T03:32:51.889Z,9.44
2023-03-31T03:33:52.678Z,9.49
2023-03-31T03:34:53.116Z,9.37
2023-03-31T03:35:54.109Z,9.4
2023-03-31T03:36:53.999Z,9.34
2023-03-31T03:37:54.739Z,9.31
2023-03-31T03:38:55.044Z,9.36
2023-03-31T03:39:55.846Z,9.4
2023-03-31T03:40:56.618Z,9.4
2023-03-31T03:41:57.692Z,9.39
2023-03-31T03:42:58.612Z,9.4
2023-03-31T03:43:59.146Z,9.48
2023-03-31T03:44:59.965Z,9.48
2023-03-31T03:46:00.565Z,9.44
2023-03-31T03:47:01.189Z,9.47
2023-03-31T03:48:02.032Z,9.45
2023-03-31T03:49:02.101Z,9.51
2023-03-31T03:50:02.600Z,9.52
2023-03-31T03:51:02.877Z,9.55
2023-03-31T03:52:03.766Z,9.54
2023-03-31T03:53:04.249Z,9.49
2023-03-31T03:54:05.151Z,9.51
2023-03-31T03:55:06.447Z,9.51
2023-03-31T03:56:07.132Z,9.54
2023-03-31T03:57:07.525Z,9.49
2023-03-31T04:05:14.053Z,9.52
2023-03-31T04:07:16.171Z,9.51
2023-03-31T04:09:14.797Z,9.52
2023-03-31T04:10:15.044Z,9.48
2023-03-31T04:11:19.057Z,9.45
2023-03-31T04:12:15.981Z,9.44
2023-03-31T04:13:16.488Z,9.39
2023-03-31T04:14:17.434Z,9.31
2023-03-31T04:15:17.831Z,9.33
2023-03-31T04:16:18.458Z,9.33
2023-03-31T04:17:18.565Z,9.29
2023-03-31T04:18:20.711Z,9.26
2023-03-31T04:20:19.723Z,9.26
2023-03-31T04:21:20.262Z,9.33
2023-03-31T04:22:20.350Z,9.27
2023-03-31T04:23:21.289Z,9.29
2023-03-31T04:24:22.567Z,9.31
2023-03-31T04:25:22.774Z,9.34
2023-03-31T04:26:22.526Z,9.3
2023-03-31T04:27:23.210Z,9.3
2023-03-31T04:28:23.502Z,9.34
2023-03-31T04:29:23.798Z,9.36
2023-03-31T04:30:24.745Z,9.36
2023-03-31T04:31:25.555Z,9.42
2023-03-31T04:32:25.863Z,9.39
2023-03-31T04:33:26.717Z,9.37
2023-03-31T04:34:27.193Z,9.44
2023-03-31T04:35:28.726Z,9.4
2023-03-31T04:36:29.267Z,9.44
2023-03-31T04:37:29.585Z,9.47
2023-03-31T04:38:30.862Z,9.48
2023-03-31T04:39:31.667Z,9.47
2023-03-31T04:40:32.422Z,9.42
2023-03-31T04:41:33.312Z,9.47
2023-03-31T04:42:34.214Z,9.36
2023-03-31T04:43:34.727Z,9.36
2023-03-31T04:44:35.651Z,9.4
2023-03-31T04:45:36.228Z,9.42
2023-03-31T04:46:36.531Z,9.45
2023-03-31T04:47:37.485Z,9.4
2023-03-31T04:48:37.422Z,9.36
2023-03-31T04:49:37.904Z,9.36
2023-03-31T04:50:38.458Z,9.39
2023-03-31T04:51:38.758Z,9.34
2023-03-31T04:52:39.458Z,9.36
2023-03-31T04:53:39.399Z,9.3
2023-03-31T04:54:40.138Z,9.31
2023-03-31T04:55:40.737Z,9.31
2023-03-31T04:56:41.641Z,9.22
2023-03-31T04:57:42.323Z,9.22
2023-03-31T04:58:42.821Z,9.22
2023-03-31T04:59:42.950Z,9.13
2023-03-31T05:00:43.662Z,9.15
2023-03-31T05:01:44.192Z,9.09
2023-03-31T05:02:45.415Z,9.15
2023-03-31T05:03:46.022Z,9.09
2023-03-31T05:04:46.579Z,9.03
2023-03-31T05:05:47.308Z,9.08
2023-03-31T05:06:48.068Z,9.09
2023-03-31T05:07:48.779Z,9.03
2023-03-31T05:08:50.099Z,9.11
2023-03-31T05:09:50.808Z,8.99
2023-03-31T05:10:51.763Z,8.99
2023-03-31T05:11:52.080Z,9.02
2023-03-31T05:12:52.591Z,9.03
2023-03-31T05:13:52.390Z,9
2023-03-31T05:14:53.124Z,8.99
2023-03-31T05:15:53.713Z,9.02
2023-03-31T05:16:54.036Z,9.02
2023-03-31T05:17:54.213Z,9.08
2023-03-31T05:18:55.182Z,9
2023-03-31T05:19:55.337Z,8.95
2023-03-31T05:20:56.158Z,9.09
2023-03-31T05:21:56.647Z,9.05
2023-03-31T05:22:57.351Z,9.09
2023-03-31T05:23:58.123Z,9.12
2023-03-31T05:24:58.645Z,9.19
2023-03-31T05:25:59.035Z,9.19
2023-03-31T05:26:59.322Z,9.33
2023-03-31T05:28:00.257Z,9.31
2023-03-31T05:29:00.953Z,9.34
2023-03-31T05:30:01.876Z,9.44
2023-03-31T05:31:02.852Z,9.37
2023-03-31T05:32:03.686Z,9.51
2023-03-31T05:33:04.672Z,9.56
2023-03-31T05:34:05.212Z,9.66
2023-03-31T05:35:05.498Z,9.64
2023-03-31T05:36:07.075Z,9.7
2023-03-31T05:37:07.506Z,9.62
2023-03-31T05:38:08.198Z,9.73
2023-03-31T05:39:09.148Z,9.76
2023-03-31T05:40:09.861Z,9.88
2023-03-31T05:41:10.174Z,9.84
2023-03-31T05:42:10.412Z,9.84
2023-03-31T05:43:11.329Z,9.95
2023-03-31T05:44:12.221Z,9.92
2023-03-31T05:45:14.913Z,9.84
2023-03-31T05:47:13.509Z,9.88
2023-03-31T05:48:14.287Z,9.87
2023-03-31T05:49:15.381Z,9.88
2023-03-31T05:50:15.623Z,9.88
2023-03-31T05:51:16.449Z,9.84
2023-03-31T05:52:17.347Z,9.84
2023-03-31T05:53:18.096Z,9.82
2023-03-31T05:54:19.082Z,9.92
2023-03-31T05:55:19.649Z,9.91
2023-03-31T05:56:19.887Z,9.95
2023-03-31T05:57:20.571Z,9.94
2023-03-31T05:58:21.306Z,10.02
2023-03-31T05:59:21.804Z,10.06
2023-03-31T06:00:22.155Z,10.07
2023-03-31T06:01:24.242Z,10.02
2023-03-31T06:03:23.984Z,10.06
2023-03-31T06:04:25.296Z,10.09
2023-03-31T06:05:25.210Z,10.12
2023-03-31T06:06:26.055Z,10.17
2023-03-31T06:07:25.833Z,10.1
2023-03-31T06:08:26.537Z,10.12
2023-03-31T06:09:26.503Z,10.07
2023-03-31T06:10:27.613Z,10.03
2023-03-31T06:11:28.176Z,10.02
2023-03-31T06:12:28.907Z,10.03
2023-03-31T06:13:30.062Z,9.97
2023-03-31T06:14:30.996Z,9.9
2023-03-31T06:15:31.092Z,9.88
2023-03-31T06:16:31.491Z,9.84
2023-03-31T06:17:32.084Z,9.85
2023-03-31T06:18:32.197Z,9.84
2023-03-31T06:19:32.919Z,9.87
2023-03-31T06:20:34.332Z,9.91
2023-03-31T06:21:34.113Z,9.92
2023-03-31T06:22:34.788Z,9.94
2023-03-31T06:23:35.756Z,9.99
2023-03-31T06:24:35.761Z,9.95
2023-03-31T06:25:53.205Z,10.02
2023-03-31T06:27:41.106Z,10.06
2023-03-31T06:28:41.651Z,10.1
2023-03-31T06:29:42.892Z,10.07
2023-03-31T06:30:43.179Z,10.13
2023-03-31T06:31:43.894Z,10.12
2023-03-31T06:32:44.970Z,10.1
2023-03-31T06:33:44.686Z,10.13
2023-03-31T06:34:45.425Z,10.21
2023-03-31T06:35:45.958Z,10.2
2023-03-31T06:36:46.735Z,10.27
2023-03-31T06:37:47.655Z,10.24
2023-03-31T06:38:47.564Z,10.27
2023-03-31T06:39:48.508Z,10.28
2023-03-31T06:40:49.212Z,10.31
2023-03-31T06:41:49.961Z,10.34
2023-03-31T06:42:50.654Z,10.36
2023-03-31T06:43:51.034Z,10.39
2023-03-31T06:44:51.997Z,10.34
2023-03-31T06:45:54.402Z,10.41
2023-03-31T06:47:54.539Z,10.55
2023-03-31T06:48:54.640Z,10.53
2023-03-31T06:49:55.392Z,10.51
2023-03-31T06:50:56.302Z,10.55
2023-03-31T06:51:57.443Z,10.46
2023-03-31T06:52:57.972Z,10.61
2023-03-31T06:53:58.687Z,10.57
2023-03-31T06:54:59.435Z,10.67
2023-03-31T06:56:00.316Z,10.67
2023-03-31T06:57:01.371Z,10.65
2023-03-31T06:58:01.283Z,10.58
2023-03-31T06:59:02.019Z,10.72
2023-03-31T07:00:03.141Z,10.76
2023-03-31T07:01:03.669Z,10.76
2023-03-31T07:02:05.041Z,10.8
2023-03-31T07:03:06.320Z,10.8
2023-03-31T07:04:06.261Z,10.86
2023-03-31T07:05:06.982Z,10.86
2023-03-31T07:06:07.156Z,10.98
2023-03-31T07:07:07.872Z,10.87
2023-03-31T07:08:08.370Z,10.84
2023-03-31T07:09:09.274Z,10.89
2023-03-31T07:10:10.027Z,10.94
2023-03-31T07:11:12.053Z,10.9
2023-03-31T07:12:12.140Z,10.92
2023-03-31T07:13:12.359Z,10.9
2023-03-31T07:14:12.853Z,10.94
2023-03-31T07:15:13.749Z,11.01
2023-03-31T07:16:15.127Z,10.94
2023-03-31T07:17:15.211Z,11.01
2023-03-31T07:18:16.481Z,11.07
2023-03-31T07:19:16.635Z,11.04
2023-03-31T07:20:17.338Z,11.07
2023-03-31T07:21:18.605Z,11.01
2023-03-31T07:22:18.771Z,11.01
2023-03-31T07:23:19.468Z,10.95
2023-03-31T07:24:20.188Z,10.95
2023-03-31T07:25:21.184Z,10.98
2023-03-31T07:26:21.875Z,10.95
2023-03-31T07:27:26.420Z,11.01
2023-03-31T07:28:22.623Z,11.08
2023-03-31T07:29:22.571Z,11.02
2023-03-31T07:30:23.517Z,11.08
2023-03-31T07:31:24.747Z,11.12
2023-03-31T07:32:29.094Z,11.15
2023-03-31T07:33:25.275Z,11.16
2023-03-31T07:34:25.586Z,11.15
2023-03-31T07:35:25.988Z,11.13
2023-03-31T07:36:27.092Z,11.12
2023-03-31T07:38:27.001Z,11.16
2023-03-31T07:39:27.901Z,11.13
2023-03-31T07:40:28.880Z,11.16
2023-03-31T07:41:28.790Z,11.08
2023-03-31T07:42:29.923Z,11.13
2023-03-31T07:43:30.754Z,11.18
2023-03-31T07:44:31.243Z,11.16
2023-03-31T07:45:32.227Z,11.18
2023-03-31T07:46:32.449Z,11.12
2023-03-31T07:47:33.787Z,11.15
2023-03-31T07:48:34.231Z,11.12
2023-03-31T07:49:34.729Z,11.16
2023-03-31T07:50:36.034Z,11.26
2023-03-31T07:51:36.943Z,11.2
2023-03-31T07:52:37.692Z,11.33
2023-03-31T07:53:37.729Z,11.43
2023-03-31T07:54:38.262Z,11.53
2023-03-31T07:55:39.225Z,11.52
2023-03-31T07:56:39.725Z,11.59
2023-03-31T07:57:40.585Z,11.53
2023-03-31T07:58:40.672Z,11.59
2023-03-31T07:59:41.812Z,11.59
2023-03-31T08:00:42.589Z,11.67
2023-03-31T08:01:43.777Z,11.58
2023-03-31T08:02:44.713Z,11.59
2023-03-31T08:03:44.208Z,11.59
2023-03-31T08:04:45.549Z,11.58
2023-03-31T08:05:45.302Z,11.59
2023-03-31T08:06:45.745Z,11.6
2023-03-31T08:07:46.459Z,11.62
2023-03-31T08:08:47.171Z,11.63
2023-03-31T08:09:47.789Z,11.6
2023-03-31T08:10:48.538Z,11.52
2023-03-31T08:11:51.851Z,11.56
2023-03-31T08:13:51.114Z,11.37
2023-03-31T08:14:51.827Z,11.37
2023-03-31T08:15:52.591Z,11.35
2023-03-31T08:16:53.801Z,11.27
2023-03-31T08:18:54.613Z,11.31
2023-03-31T08:19:55.584Z,11.27
2023-03-31T08:20:56.636Z,11.33
2023-03-31T08:21:56.671Z,11.35
2023-03-31T08:22:57.428Z,11.77
2023-03-31T08:23:58.637Z,12.65
2023-03-31T08:24:59.104Z,13.11
2023-03-31T08:25:59.138Z,13.78
2023-03-31T08:26:59.512Z,13.95
2023-03-31T08:28:00.193Z,13.93
2023-03-31T08:29:01.136Z,13.97
2023-03-31T08:30:02.072Z,14.01
2023-03-31T08:31:02.246Z,14.01
2023-03-31T08:32:02.787Z,14.08
2023-03-31T08:33:03.333Z,14.07
2023-03-31T08:34:04.102Z,13.98
2023-03-31T08:35:05.011Z,14
2023-03-31T08:36:06.621Z,13.82
2023-03-31T08:37:06.683Z,13.71
2023-03-31T08:38:07.850Z,13.93
2023-03-31T08:39:08.757Z,14.13
2023-03-31T08:40:09.527Z,14.41
2023-03-31T08:41:09.554Z,14.41
2023-03-31T08:42:14.675Z,14.34
2023-03-31T08:43:10.831Z,14.03
2023-03-31T08:44:11.753Z,14.01
2023-03-31T08:45:12.473Z,13.8
2023-03-31T08:46:13.811Z,13.62
2023-03-31T08:49:14.356Z,13.17
2023-03-31T08:50:15.087Z,12.87
2023-03-31T08:51:16.027Z,12.57
2023-03-31T08:52:16.573Z,12.57
2023-03-31T08:53:17.761Z,12.36
2023-03-31T08:54:20.792Z,12.36
2023-03-31T08:56:19.347Z,12.14
2023-03-31T08:57:20.484Z,12.14
2023-03-31T08:59:20.929Z,11.88
2023-03-31T09:00:22.224Z,11.78
2023-03-31T09:01:22.798Z,11.65
2023-03-31T09:02:24.263Z,11.58
2023-03-31T09:03:24.847Z,11.58
2023-03-31T09:04:25.199Z,11.56
2023-03-31T09:05:26.159Z,11.48
2023-03-31T09:06:26.207Z,11.44
2023-03-31T09:07:26.628Z,11.37
2023-03-31T09:08:27.510Z,11.48
2023-03-31T09:09:28.609Z,11.49
2023-03-31T09:10:29.353Z,11.38
2023-03-31T09:11:30.334Z,11.45
2023-03-31T09:12:30.893Z,11.45
2023-03-31T09:13:31.833Z,11.51
2023-03-31T09:14:32.879Z,11.52
2023-03-31T09:15:33.583Z,11.53
2023-03-31T09:16:33.769Z,11.58
2023-03-31T09:17:34.217Z,11.62
2023-03-31T09:18:34.476Z,11.58
2023-03-31T09:19:34.857Z,11.52
2023-03-31T09:20:35.774Z,11.67
2023-03-31T09:21:36.713Z,11.62
2023-03-31T09:22:37.289Z,11.65
2023-03-31T09:23:38.851Z,11.63
2023-03-31T09:24:38.916Z,11.65
2023-03-31T09:25:39.618Z,11.74
2023-03-31T09:26:40.875Z,11.76
2023-03-31T09:27:41.634Z,11.78
2023-03-31T09:28:42.348Z,11.71
2023-03-31T09:29:43.605Z,11.7
2023-03-31T09:30:43.287Z,11.6
2023-03-31T09:31:44.266Z,11.59
2023-03-31T09:32:44.090Z,11.6
2023-03-31T09:33:45.428Z,11.68
2023-03-31T09:34:46.109Z,11.6
2023-03-31T09:35:47.857Z,11.62
2023-03-31T09:36:46.562Z,11.59
2023-03-31T09:37:47.535Z,11.56
2023-03-31T09:38:48.428Z,11.62
2023-03-31T09:39:49.089Z,11.52
2023-03-31T09:40:50.191Z,11.58
2023-03-31T09:41:50.387Z,11.6
2023-03-31T09:42:51.416Z,11.56
2023-03-31T09:43:51.584Z,11.67
2023-03-31T09:44:51.788Z,11.56
2023-03-31T09:46:11.107Z,11.67
2023-03-31T09:47:54.445Z,11.68
2023-03-31T09:48:54.725Z,11.81
2023-03-31T09:50:00.090Z,11.81
2023-03-31T09:51:56.996Z,11.85
2023-03-31T09:52:57.831Z,11.89
2023-03-31T09:53:58.809Z,11.88
2023-03-31T09:54:58.498Z,11.89
2023-03-31T09:55:59.202Z,12.03
2023-03-31T09:57:00.252Z,11.99
2023-03-31T09:58:00.328Z,12.05
2023-03-31T09:59:01.348Z,12.02
2023-03-31T10:00:02.108Z,12.07
2023-03-31T10:01:03.641Z,12.07
2023-03-31T10:02:03.695Z,12.07
2023-03-31T10:03:03.594Z,12.05
2023-03-31T10:04:04.821Z,12.11
2023-03-31T10:05:04.982Z,12.03
2023-03-31T10:06:05.738Z,12.11
2023-03-31T10:07:06.457Z,12.14
2023-03-31T10:08:07.220Z,12.08
2023-03-31T10:09:07.839Z,12.1
2023-03-31T10:10:08.628Z,12.23
2023-03-31T10:11:09.755Z,12.18
2023-03-31T10:12:08.937Z,12.17
2023-03-31T10:13:09.466Z,12.15
2023-03-31T10:14:10.609Z,12.18
2023-03-31T10:15:11.327Z,12.21
2023-03-31T10:16:11.924Z,12.17
2023-03-31T10:17:12.224Z,12.05
2023-03-31T10:18:13.058Z,12.08
2023-03-31T10:19:13.173Z,12
2023-03-31T10:20:13.253Z,12.08
2023-03-31T10:21:14.548Z,12.07
2023-03-31T10:22:15.988Z,12.07
2023-03-31T10:23:15.695Z,12.21
2023-03-31T10:24:16.281Z,12.18
2023-03-31T10:25:17.570Z,12.2
2023-03-31T10:26:17.910Z,12.28
2023-03-31T10:27:20.460Z,12.15
2023-03-31T10:28:19.750Z,12.28
2023-03-31T10:29:19.893Z,12.29
2023-03-31T10:30:19.851Z,12.28
2023-03-31T10:31:20.485Z,12.35
2023-03-31T10:32:21.334Z,12.37
2023-03-31T10:33:28.479Z,12.43
2023-03-31T10:35:24.616Z,12.53
2023-03-31T10:36:25.529Z,12.63
2023-03-31T10:37:26.434Z,12.8
2023-03-31T10:38:26.955Z,13.13
2023-03-31T10:39:27.602Z,13.4
2023-03-31T10:40:28.604Z,13.85
2023-03-31T10:41:29.603Z,14.26
2023-03-31T10:42:29.778Z,14.53
2023-03-31T10:43:30.320Z,15
2023-03-31T10:44:31.254Z,15.05
2023-03-31T10:45:42.259Z,14.97
2023-03-31T10:47:33.455Z,14.81
2023-03-31T10:48:33.881Z,14.86
2023-03-31T10:49:34.727Z,14.89
2023-03-31T10:50:35.647Z,15.05
2023-03-31T10:51:36.443Z,15.08
2023-03-31T10:52:37.347Z,15.23
2023-03-31T10:53:38.243Z,15.45
2023-03-31T10:54:38.228Z,15.51
2023-03-31T10:55:38.964Z,15.55
2023-03-31T10:56:39.660Z,15.55
2023-03-31T10:57:40.578Z,15.52
2023-03-31T10:58:40.546Z,15.54
2023-03-31T10:59:43.721Z,15.5
2023-03-31T11:00:44.271Z,15.45
2023-03-31T11:01:45.206Z,15.39
2023-03-31T11:02:45.840Z,15.14
2023-03-31T11:03:47.100Z,15.14
2023-03-31T11:04:47.686Z,15.02
2023-03-31T11:05:48.188Z,15.14
2023-03-31T11:06:49.105Z,14.89
2023-03-31T11:07:49.824Z,14.7
2023-03-31T11:08:50.716Z,14.61
2023-03-31T11:09:51.311Z,14.55
2023-03-31T11:10:51.826Z,14.38
2023-03-31T11:11:52.567Z,14.38
2023-03-31T11:12:53.726Z,14.31
2023-03-31T11:13:53.846Z,14.3
2023-03-31T11:14:54.631Z,14.2
2023-03-31T11:15:55.456Z,14.12
2023-03-31T11:16:55.874Z,14.05
2023-03-31T11:17:55.847Z,14.04
2023-03-31T11:18:56.887Z,13.98
2023-03-31T11:19:57.351Z,13.97
2023-03-31T11:20:58.046Z,13.83
2023-03-31T11:21:58.595Z,13.82
2023-03-31T11:22:59.291Z,13.78
2023-03-31T11:23:59.991Z,13.7
2023-03-31T11:25:01.214Z,13.62
2023-03-31T11:26:02.015Z,13.55
2023-03-31T11:27:02.716Z,13.4
2023-03-31T11:28:03.529Z,13.42
2023-03-31T11:29:04.286Z,13.19
2023-03-31T11:30:04.786Z,13.09
2023-03-31T11:31:06.195Z,12.99
2023-03-31T11:32:06.334Z,12.94
2023-03-31T11:33:06.721Z,12.87
2023-03-31T11:34:06.765Z,12.81
2023-03-31T11:35:07.435Z,12.81
2023-03-31T11:36:08.479Z,12.65
2023-03-31T11:37:08.478Z,12.54
2023-03-31T11:38:09.475Z,12.55
2023-03-31T11:39:09.719Z,12.47
2023-03-31T11:40:10.578Z,12.39
2023-03-31T11:41:11.784Z,12.33
2023-03-31T11:42:12.507Z,12.33
2023-03-31T11:43:13.070Z,12.39
2023-03-31T11:44:13.988Z,12.39
2023-03-31T11:45:14.911Z,12.44
2023-03-31T11:46:16.229Z,12.57
2023-03-31T11:47:16.243Z,12.57
2023-03-31T11:48:17.127Z,12.69
2023-03-31T11:49:18.072Z,12.7
2023-03-31T11:50:18.811Z,12.78
2023-03-31T11:51:18.767Z,12.81
2023-03-31T11:52:19.054Z,13.05
2023-03-31T11:53:20.181Z,12.99
2023-03-31T11:54:20.520Z,13.13
2023-03-31T11:55:21.491Z,13.17
2023-03-31T11:56:22.438Z,13.24
2023-03-31T11:57:22.448Z,13.27
2023-03-31T11:58:22.469Z,13.21
2023-03-31T11:59:23.228Z,13.39
2023-03-31T12:00:24.069Z,13.23
2023-03-31T12:01:24.965Z,13.21
2023-03-31T12:02:25.147Z,13.27
2023-03-31T12:03:25.667Z,13.31
2023-03-31T12:04:25.568Z,13.39
2023-03-31T12:05:26.431Z,13.37
2023-03-31T12:06:27.603Z,13.4
2023-03-31T12:07:27.946Z,13.4
2023-03-31T12:08:28.893Z,13.3
2023-03-31T12:09:29.402Z,13.31
2023-03-31T12:10:29.852Z,13.37
2023-03-31T12:11:30.591Z,13.37
2023-03-31T12:12:31.578Z,13.31
2023-03-31T12:13:32.340Z,13.36
2023-03-31T12:14:33.053Z,13.31
2023-03-31T12:15:33.601Z,13.3
2023-03-31T12:16:34.519Z,13.37
2023-03-31T12:17:35.396Z,13.28
2023-03-31T12:18:35.439Z,13.31
2023-03-31T12:19:35.548Z,13.24
2023-03-31T12:20:36.167Z,13.24
2023-03-31T12:21:37.128Z,13.43
2023-03-31T12:22:37.752Z,13.23
2023-03-31T12:23:38.256Z,13.27
2023-03-31T12:24:38.949Z,13.3
2023-03-31T12:25:39.727Z,13.23
2023-03-31T12:26:40.427Z,13.27
2023-03-31T12:27:40.735Z,13.16
2023-03-31T12:29:40.978Z,13.21
2023-03-31T12:30:41.222Z,13.24
2023-03-31T12:31:41.950Z,13.2
2023-03-31T12:32:43.101Z,13.21
2023-03-31T12:33:43.107Z,13.27
2023-03-31T12:34:44.102Z,13.26
2023-03-31T12:35:45.200Z,13.28
2023-03-31T12:36:45.429Z,13.23
2023-03-31T12:37:45.754Z,13.2
2023-03-31T12:38:46.264Z,13.24
2023-03-31T12:39:46.776Z,13.16
2023-03-31T12:40:47.629Z,13.17
2023-03-31T12:41:47.591Z,13.13
2023-03-31T12:42:48.517Z,13.09
2023-03-31T12:43:49.200Z,13.03
2023-03-31T12:44:49.923Z,12.99
2023-03-31T12:45:51.068Z,12.98
2023-03-31T12:46:51.739Z,12.88
2023-03-31T12:47:52.520Z,12.78
2023-03-31T12:48:55.794Z,12.9
2023-03-31T12:49:53.879Z,12.83
2023-03-31T12:50:54.729Z,12.83
2023-03-31T12:51:54.682Z,12.78
2023-03-31T12:52:55.830Z,12.61
2023-03-31T12:53:56.859Z,12.2
2023-03-31T12:54:57.023Z,11.6
2023-03-31T12:55:57.850Z,11.26
2023-03-31T12:56:58.127Z,10.89
2023-03-31T12:57:57.986Z,10.59
2023-03-31T12:58:59.151Z,10.46
2023-03-31T12:59:59.701Z,10.33
2023-03-31T13:01:00.494Z,10.25
2023-03-31T13:02:00.962Z,10.15
2023-03-31T13:03:01.928Z,10.1
2023-03-31T13:04:02.755Z,10.02
2023-03-31T13:05:03.333Z,10.06
2023-03-31T13:06:04.026Z,9.95
2023-03-31T13:07:21.198Z,9.94
2023-03-31T13:08:05.452Z,9.9
2023-03-31T13:09:06.542Z,9.88
2023-03-31T13:10:06.646Z,9.82
2023-03-31T13:11:07.907Z,9.92
2023-03-31T13:12:07.586Z,9.88
2023-03-31T13:13:08.090Z,9.9
2023-03-31T13:14:09.350Z,9.97
2023-03-31T13:15:10.291Z,10.09
2023-03-31T13:16:10.588Z,10.06
2023-03-31T13:17:11.103Z,10.06
2023-03-31T13:18:11.307Z,10.09
2023-03-31T13:19:12.366Z,10.13
2023-03-31T13:20:12.061Z,10.12
2023-03-31T13:21:12.916Z,10.1
2023-03-31T13:22:13.206Z,10.17
2023-03-31T13:23:14.507Z,10.1
2023-03-31T13:24:15.360Z,10.12
2023-03-31T13:25:16.050Z,10.18
2023-03-31T13:26:17.023Z,10.24
2023-03-31T13:27:16.919Z,10.12
2023-03-31T13:28:17.711Z,10.15
2023-03-31T13:29:17.946Z,10.07
2023-03-31T13:30:18.854Z,10.02
2023-03-31T13:31:19.811Z,10.18
2023-03-31T13:32:20.057Z,10.15
2023-03-31T13:33:23.524Z,10.1
2023-03-31T13:35:22.158Z,10.12
2023-03-31T13:36:22.830Z,10.21
2023-03-31T13:37:23.758Z,10.2
2023-03-31T13:38:24.653Z,10.18
2023-03-31T13:39:24.964Z,10.17
2023-03-31T13:40:25.263Z,10.27
2023-03-31T13:41:26.099Z,10.24
2023-03-31T13:42:26.800Z,10.41
2023-03-31T13:43:26.571Z,10.39